Terminal Aerodrome Forecast
Issued by NWS

Home | Current Version | Previous Version | Text Only | Print | Product List | Glossary On
Versions: 1 2 3 4 5 6 7 8 9 10 11 12 13 14 15 16 17
000
FTUS43 KICT 270628 AAA
TAFHUT
TAF AMD
KHUT 270628Z 2706/2806 03017G22KT P6SM OVC150
     FM270900 02017G22KT P6SM OVC008
     FM271500 02013KT P6SM SCT045 BKN080
     FM280300 16007KT P6SM SCT100 BKN250=

USA.gov is the U.S. government's official web portal to all federal, state and local government web resources and services.